Rishon LeZiyyon, Israel
Current Conditions -  °F | °C
As of 10:50 AM on Thursday 23 Oct 2014 (Local Time) from LLBG Reporting Station
Few Clouds Few Clouds  
Wind Chill: 79°   Ceiling: Unl
Heat Index: 80°   Visibility: 6mi
Dew Point: 61°   Wind: 6mph
Humidity: 54%   Direction: 240°WSW
Pressure: 30"   Gusts: NA
Location:  31.96°N, 34.8°E
Report Text: LLBG 230750Z 24005KT 190V300 9999 FEW035 26/16 Q1016 NOSIG
Loading
Personal Weather Stations






























Interactive Weather Map
Tropical Storm Tracking
New forecast layout! Learn more

10-Day Weather Forecast

Advertisements
Track Severe Weather on mobile